Time;durP1;ratioP1;P1;durP2;ratioP2;P2;SDS_P1;SDS_P2;PMS_P1;PMS_P2;Temp;Humidity;BMP_temperature;BMP_pressure;BME280_temperature;BME280_humidity;BME280_pressure;Samples;Min_cycle;Max_cycle;Signal;HPM_P1;HPM_P2
2021/08/08 00:00:19;;;;;;;6.03;5.43;;;;;;;19.91;60.57;99227.94;4916296;29;20048;-75
2021/08/08 00:02:46;;;;;;;5.93;5.18;;;;;;;19.92;60.82;99220.75;4912717;29;20059;-78
2021/08/08 00:05:14;;;;;;;7.95;5.10;;;;;;;19.91;60.82;99217.22;4913346;29;20048;-80
2021/08/08 00:07:42;;;;;;;6.78;5.68;;;;;;;19.87;60.81;99229.38;4912118;29;20818;-76
2021/08/08 00:10:12;;;;;;;8.18;5.28;;;;;;;19.81;61.13;99227.47;4896127;29;20095;-76
2021/08/08 00:12:41;;;;;;;8.23;4.93;;;;;;;19.77;61.20;99220.84;4910956;29;20115;-76
2021/08/08 00:15:10;;;;;;;7.30;5.20;;;;;;;19.73;61.32;99217.72;4911467;29;20048;-75
2021/08/08 00:17:38;;;;;;;6.78;5.32;;;;;;;19.68;61.26;99209.44;4910511;29;20067;-79
2021/08/08 00:20:07;;;;;;;7.93;5.30;;;;;;;19.66;61.51;99209.63;4910467;29;20048;-76
2021/08/08 00:22:35;;;;;;;6.00;5.18;;;;;;;19.66;61.56;99206.94;4895585;29;20056;-76
2021/08/08 00:25:05;;;;;;;6.85;4.95;;;;;;;19.67;61.81;99202.41;4911779;29;20048;-77
2021/08/08 00:27:33;;;;;;;7.65;5.75;;;;;;;19.67;61.65;99210.44;4911185;29;20056;-75
2021/08/08 00:30:00;;;;;;;7.00;5.50;;;;;;;19.66;62.09;99203.41;4913823;29;20052;-76
2021/08/08 00:32:27;;;;;;;10.13;5.07;;;;;;;19.69;61.73;99205.72;4915992;29;20537;-77
2021/08/08 00:34:55;;;;;;;7.15;4.82;;;;;;;19.74;61.75;99200.63;4921121;29;20484;-80
2021/08/08 00:37:22;;;;;;;5.35;4.85;;;;;;;19.75;61.71;99196.09;4927792;29;20036;-86
2021/08/08 00:39:48;;;;;;;7.75;4.82;;;;;;;19.75;61.52;99190.75;4927470;29;20449;-73
2021/08/08 00:42:17;;;;;;;8.02;5.97;;;;;;;19.76;61.88;99187.06;4916818;29;20480;-73
2021/08/08 00:44:45;;;;;;;8.23;5.43;;;;;;;19.80;61.50;99183.75;4908662;29;20123;-75
2021/08/08 00:47:12;;;;;;;6.80;4.88;;;;;;;19.81;61.71;99173.88;4899095;29;20052;-76
2021/08/08 00:49:39;;;;;;;6.70;4.80;;;;;;;19.82;61.58;99175.53;4913199;29;20135;-79
2021/08/08 00:52:08;;;;;;;6.57;4.85;;;;;;;19.81;61.81;99168.53;4918001;29;20048;-84
2021/08/08 00:54:35;;;;;;;7.15;5.30;;;;;;;19.83;61.92;99169.97;4898779;29;20063;-82
2021/08/08 00:57:03;;;;;;;8.25;5.13;;;;;;;19.87;61.80;99170.41;4913189;29;20552;-79
2021/08/08 00:59:31;;;;;;;6.53;5.10;;;;;;;19.89;61.58;99160.31;4915754;29;20062;-78
2021/08/08 01:02:01;;;;;;;6.95;5.53;;;;;;;19.89;62.02;99154.94;4913108;29;20056;-77
2021/08/08 01:04:30;;;;;;;10.27;5.50;;;;;;;19.89;62.10;99149.59;4911420;29;20052;-78
2021/08/08 01:07:03;;;;;;;7.68;6.00;;;;;;;19.88;62.35;99153.31;4910790;29;20060;-77
2021/08/08 01:09:32;;;;;;;9.45;6.15;;;;;;;19.91;62.22;99142.19;4912178;29;20059;-77
2021/08/08 01:12:01;;;;;;;6.45;5.30;;;;;;;19.92;62.43;99138.50;4912643;29;20512;-77
2021/08/08 01:14:30;;;;;;;10.80;6.40;;;;;;;19.93;62.54;99142.81;4909808;29;20068;-75
2021/08/08 01:17:04;;;;;;;6.65;4.93;;;;;;;19.97;62.48;99133.38;4909750;29;20135;-76
2021/08/08 01:19:34;;;;;;;10.65;5.85;;;;;;;20.01;62.36;99141.81;4908053;29;20048;-76
2021/08/08 01:22:02;;;;;;;8.07;5.57;;;;;;;20.03;62.72;99134.41;4911074;29;20055;-79
2021/08/08 01:24:32;;;;;;;10.38;6.05;;;;;;;20.04;62.64;99125.31;4909259;29;20142;-77
2021/08/08 01:26:59;;;;;;;6.70;5.35;;;;;;;20.07;62.87;99118.75;4909741;29;20052;-76
2021/08/08 01:29:26;;;;;;;6.25;5.32;;;;;;;20.11;62.96;99114.63;4910214;29;20048;-76
2021/08/08 01:31:56;;;;;;;10.20;6.60;;;;;;;20.19;62.82;99111.78;4909838;29;20711;-79
2021/08/08 01:34:22;;;;;;;7.22;5.90;;;;;;;20.22;62.66;99097.97;4910097;29;20075;-79
2021/08/08 01:36:50;;;;;;;7.05;5.60;;;;;;;20.24;62.77;99106.66;4910007;29;20048;-78
2021/08/08 01:39:20;;;;;;;7.22;6.07;;;;;;;20.29;63.08;99098.81;4893176;29;20196;-79
2021/08/08 01:41:53;;;;;;;6.85;5.15;;;;;;;20.31;63.00;99096.78;4913549;29;20063;-81
2021/08/08 01:44:22;;;;;;;11.73;5.38;;;;;;;20.31;63.02;99080.69;4894691;29;20143;-80
2021/08/08 01:46:53;;;;;;;7.60;5.90;;;;;;;20.30;63.08;99083.56;4910947;29;20043;-80
2021/08/08 01:49:23;;;;;;;94.28;61.55;;;;;;;20.25;63.38;99079.63;4909937;29;20044;-79
2021/08/08 01:51:51;;;;;;;11.35;7.47;;;;;;;20.25;63.26;99078.78;4909882;29;20595;-78
2021/08/08 01:54:19;;;;;;;9.23;7.10;;;;;;;20.21;63.77;99078.38;4910326;29;20052;-83
2021/08/08 01:56:48;;;;;;;7.50;5.40;;;;;;;20.16;63.95;99074.66;4911179;29;20121;-80
2021/08/08 01:59:16;;;;;;;5.93;5.25;;;;;;;20.10;64.00;99064.75;4909302;29;20056;-81
2021/08/08 02:01:43;;;;;;;7.65;5.00;;;;;;;20.06;64.06;99069.69;4892454;29;20059;-77
2021/08/08 02:04:18;;;;;;;7.93;5.65;;;;;;;20.04;64.48;99064.53;4909935;29;20549;-78
2021/08/08 02:06:46;;;;;;;7.20;5.80;;;;;;;20.04;64.31;99077.09;4908970;29;20060;-75
2021/08/08 02:09:12;;;;;;;7.40;5.20;;;;;;;20.03;64.24;99064.72;4907265;29;20048;-76
2021/08/08 02:11:39;;;;;;;8.45;5.97;;;;;;;20.10;64.23;99059.41;4909430;29;20139;-74
2021/08/08 02:14:08;;;;;;;7.53;5.47;;;;;;;20.16;64.33;99048.66;4907592;29;20052;-74
2021/08/08 02:16:35;;;;;;;7.90;6.18;;;;;;;20.23;64.03;99048.69;4911091;29;20063;-77
2021/08/08 02:19:02;;;;;;;9.65;6.40;;;;;;;20.32;63.72;99052.81;4910845;29;20064;-73
2021/08/08 02:21:29;;;;;;;8.80;5.57;;;;;;;20.39;63.67;99053.66;4914469;29;20048;-75
2021/08/08 02:23:56;;;;;;;7.43;5.30;;;;;;;20.44;63.92;99055.75;4911949;29;20382;-76
2021/08/08 02:26:24;;;;;;;7.82;5.80;;;;;;;20.49;63.92;99058.63;4912500;29;20095;-78
2021/08/08 02:28:51;;;;;;;7.05;4.97;;;;;;;20.54;63.72;99066.06;4912096;29;20112;-80
2021/08/08 02:31:20;;;;;;;6.25;4.93;;;;;;;20.58;63.52;99049.34;4912731;29;20456;-82
2021/08/08 02:33:47;;;;;;;9.98;5.32;;;;;;;20.61;63.68;99045.44;4912118;29;20056;-77
2021/08/08 02:36:14;;;;;;;6.45;5.20;;;;;;;20.58;63.99;99040.47;4912538;29;20131;-78
2021/08/08 02:38:41;;;;;;;6.50;5.63;;;;;;;20.50;64.50;99032.63;4911213;29;20052;-79
2021/08/08 02:41:10;;;;;;;8.70;5.85;;;;;;;20.39;64.52;99032.22;4912670;29;20224;-77
2021/08/08 02:43:37;;;;;;;8.32;5.60;;;;;;;20.36;65.23;99032.59;4912618;29;20044;-78
2021/08/08 02:46:05;;;;;;;8.68;6.68;;;;;;;20.37;65.34;99028.09;4912171;29;20711;-78
2021/08/08 02:48:35;;;;;;;7.65;5.57;;;;;;;20.35;65.27;99030.16;4910917;29;20070;-79
2021/08/08 02:51:02;;;;;;;6.68;6.00;;;;;;;20.36;65.19;99019.19;4915042;29;20060;-80
2021/08/08 02:53:30;;;;;;;8.85;5.88;;;;;;;20.34;65.48;99037.34;4913865;29;20083;-77
2021/08/08 02:55:57;;;;;;;7.68;5.75;;;;;;;20.36;65.90;99027.25;4913067;29;20449;-78
2021/08/08 02:58:24;;;;;;;7.95;5.60;;;;;;;20.32;65.86;99030.56;4914639;29;20052;-78
2021/08/08 03:00:51;;;;;;;8.05;5.88;;;;;;;20.30;65.94;99032.63;4912700;29;20052;-78
2021/08/08 03:03:18;;;;;;;9.20;6.57;;;;;;;20.28;66.03;99040.03;4913687;29;20056;-80
2021/08/08 03:05:46;;;;;;;8.23;6.60;;;;;;;20.20;66.55;99033.00;4912698;29;20051;-80
2021/08/08 03:08:13;;;;;;;8.43;6.53;;;;;;;20.15;66.75;99038.13;4914122;29;20062;-79
2021/08/08 03:10:41;;;;;;;8.05;5.57;;;;;;;20.15;66.72;99038.13;4912463;29;20361;-80
2021/08/08 03:13:07;;;;;;;7.15;6.38;;;;;;;20.17;66.52;99036.09;4911690;29;20052;-80
2021/08/08 03:15:34;;;;;;;8.50;5.75;;;;;;;20.16;66.71;99027.22;4912494;29;20056;-80
2021/08/08 03:18:01;;;;;;;7.05;5.45;;;;;;;20.16;66.96;99027.22;4911600;29;20072;-80
2021/08/08 03:20:28;;;;;;;8.88;5.80;;;;;;;20.19;66.52;99031.38;4912002;29;20595;-79
2021/08/08 03:22:58;;;;;;;10.57;5.75;;;;;;;20.21;66.64;99034.66;4912361;29;20115;-81
2021/08/08 03:25:25;;;;;;;7.38;5.72;;;;;;;20.22;66.83;99038.97;4911057;29;20560;-77
2021/08/08 03:27:52;;;;;;;7.85;5.45;;;;;;;20.27;66.52;99036.50;4911218;29;20721;-74
2021/08/08 03:30:19;;;;;;;7.65;5.88;;;;;;;20.31;66.64;99059.22;4912210;29;20079;-75
2021/08/08 03:32:46;;;;;;;6.45;5.22;;;;;;;20.35;66.39;99103.38;4913383;29;20610;-76
2021/08/08 03:35:13;;;;;;;9.45;5.28;;;;;;;20.34;66.13;99107.06;4911961;29;20072;-77
2021/08/08 03:37:40;;;;;;;9.10;4.90;;;;;;;20.28;66.43;99115.13;4913957;29;20048;-77
2021/08/08 03:40:10;;;;;;;5.78;4.93;;;;;;;20.25;66.91;99098.38;4911615;29;20716;-74
2021/08/08 03:42:38;;;;;;;7.38;4.90;;;;;;;20.28;66.60;99094.50;4908965;29;20068;-74
2021/08/08 03:45:06;;;;;;;5.90;4.30;;;;;;;20.27;66.86;99092.81;4909675;29;20051;-74
2021/08/08 03:47:33;;;;;;;6.85;5.28;;;;;;;20.29;66.73;99095.31;4861098;29;20071;-77
2021/08/08 03:50:00;;;;;;;5.18;4.03;;;;;;;20.30;66.65;99088.94;4909014;29;20070;-77
2021/08/08 03:52:27;;;;;;;8.90;5.03;;;;;;;20.31;66.50;99086.03;4909172;29;20055;-77
2021/08/08 03:54:54;;;;;;;6.78;4.80;;;;;;;20.33;66.71;99097.38;4910474;29;20052;-78
2021/08/08 03:57:22;;;;;;;8.60;5.03;;;;;;;20.32;67.09;99095.72;4911371;29;20059;-74
2021/08/08 03:59:49;;;;;;;8.35;5.38;;;;;;;20.31;67.14;99104.81;4912820;29;20406;-74
2021/08/08 04:02:16;;;;;;;8.20;4.75;;;;;;;20.29;67.37;99133.66;4918143;29;20048;-76
2021/08/08 04:04:43;;;;;;;8.35;5.25;;;;;;;20.27;67.58;99149.13;4916275;29;20056;-78
2021/08/08 04:07:10;;;;;;;9.35;5.75;;;;;;;20.17;67.88;99146.03;4912129;29;20052;-78
2021/08/08 04:09:37;;;;;;;8.05;6.43;;;;;;;20.08;68.21;99149.88;4912362;29;20421;-76
2021/08/08 04:12:07;;;;;;;10.98;6.25;;;;;;;19.99;68.50;99152.75;4911590;29;20055;-78
2021/08/08 04:14:36;;;;;;;8.38;5.63;;;;;;;19.89;69.00;99114.75;4913002;29;20077;-74
2021/08/08 04:17:03;;;;;;;10.52;7.43;;;;;;;19.79;69.41;99104.44;4912704;29;20050;-74
2021/08/08 04:19:31;;;;;;;10.00;6.65;;;;;;;19.71;70.00;99104.53;4908683;29;20529;-77
2021/08/08 04:21:59;;;;;;;8.02;6.55;;;;;;;19.75;69.87;99110.38;4894918;29;20087;-78
2021/08/08 04:24:26;;;;;;;10.00;6.15;;;;;;;19.78;69.86;99110.78;4912451;29;20055;-75
2021/08/08 04:26:53;;;;;;;9.57;7.25;;;;;;;19.83;69.94;99104.84;4912660;29;20054;-81
2021/08/08 04:29:21;;;;;;;11.10;5.93;;;;;;;19.84;69.85;99117.22;4899508;29;20056;-75
2021/08/08 04:31:51;;;;;;;8.68;6.65;;;;;;;19.88;69.86;99114.94;4912896;29;20048;-74
2021/08/08 04:34:18;;;;;;;6.97;5.38;;;;;;;19.90;69.84;99112.91;4913068;29;20048;-78
2021/08/08 04:36:46;;;;;;;8.65;7.40;;;;;;;19.88;69.96;99113.13;4913365;29;20082;-75
2021/08/08 04:39:13;;;;;;;8.93;7.25;;;;;;;19.89;69.97;99125.47;4916811;29;20058;-75
2021/08/08 04:41:40;;;;;;;9.60;6.88;;;;;;;19.94;70.11;99120.34;4896955;29;20040;-75
2021/08/08 04:44:08;;;;;;;9.77;6.75;;;;;;;19.99;69.98;99125.94;4918846;29;20040;-75
2021/08/08 04:46:35;;;;;;;10.32;7.15;;;;;;;20.01;70.08;99123.06;4909986;29;20052;-75
2021/08/08 04:49:03;;;;;;;8.77;7.82;;;;;;;20.10;69.79;99129.91;4923613;29;20230;-75
2021/08/08 04:51:32;;;;;;;9.95;6.68;;;;;;;20.23;69.64;99131.78;4925215;29;20049;-75
2021/08/08 04:53:59;;;;;;;9.32;6.47;;;;;;;20.36;69.59;99126.47;4924568;29;20079;-76
2021/08/08 04:56:26;;;;;;;9.32;6.68;;;;;;;20.53;69.19;99123.44;4928943;29;20091;-83
2021/08/08 04:58:54;;;;;;;11.02;6.65;;;;;;;20.68;68.60;99121.41;4938049;29;20056;-80
2021/08/08 05:01:22;;;;;;;12.05;7.72;;;;;;;20.79;68.58;99126.16;4932421;29;20044;-83
2021/08/08 05:03:50;;;;;;;10.88;7.40;;;;;;;20.89;68.43;99123.09;4917189;29;20043;-78
2021/08/08 05:06:19;;;;;;;9.93;6.70;;;;;;;20.98;68.33;99126.38;4933216;29;20047;-79
2021/08/08 05:08:46;;;;;;;9.88;6.13;;;;;;;21.04;68.40;99136.28;4928811;29;20052;-79
2021/08/08 05:11:17;;;;;;;10.80;7.10;;;;;;;21.11;68.17;99122.88;4898825;29;20049;-81
2021/08/08 05:13:45;;;;;;;9.48;7.15;;;;;;;21.18;67.86;99121.00;4905866;29;20069;-82
2021/08/08 05:16:12;;;;;;;7.45;5.70;;;;;;;21.20;68.07;99116.25;4926988;29;20103;-82
2021/08/08 05:18:39;;;;;;;7.53;6.00;;;;;;;21.22;68.05;99121.41;4906615;29;20052;-76
2021/08/08 05:21:06;;;;;;;7.78;5.80;;;;;;;21.18;68.10;99129.06;4923436;29;20054;-80
2021/08/08 05:23:35;;;;;;;8.20;6.15;;;;;;;21.15;67.90;99124.91;4927615;29;20048;-76
2021/08/08 05:26:04;;;;;;;9.63;5.80;;;;;;;21.22;67.96;99132.16;4926504;29;20073;-77
2021/08/08 05:28:30;;;;;;;8.63;6.28;;;;;;;21.29;67.75;99143.72;4917716;29;20056;-77
2021/08/08 05:30:57;;;;;;;8.40;5.45;;;;;;;21.42;67.77;99142.88;4927827;29;20181;-76
2021/08/08 05:33:24;;;;;;;9.95;5.75;;;;;;;21.52;67.55;99154.06;4928224;29;20055;-82
2021/08/08 05:35:52;;;;;;;10.32;6.72;;;;;;;21.53;67.37;99161.06;4927110;29;20051;-81
2021/08/08 05:38:19;;;;;;;9.32;5.85;;;;;;;21.67;67.24;99161.88;4929254;29;20044;-76
2021/08/08 05:40:48;;;;;;;7.57;5.70;;;;;;;21.70;67.10;99166.84;4934043;29;20103;-77
2021/08/08 05:43:15;;;;;;;7.68;6.38;;;;;;;21.73;66.83;99171.78;4927483;29;20052;-79
2021/08/08 05:45:46;;;;;;;7.63;5.38;;;;;;;21.80;66.96;99174.44;4928338;29;20052;-77
2021/08/08 05:48:14;;;;;;;8.57;5.38;;;;;;;21.73;66.86;99177.16;4927553;29;20052;-81
2021/08/08 05:50:41;;;;;;;9.13;5.30;;;;;;;21.68;66.69;99185.00;4934593;29;20069;-80
2021/08/08 05:53:08;;;;;;;7.05;4.88;;;;;;;21.69;66.88;99189.34;4933012;29;20105;-77
2021/08/08 05:55:41;;;;;;;7.38;5.10;;;;;;;21.76;66.96;99187.47;4935353;29;20095;-80
2021/08/08 05:58:10;;;;;;;7.72;4.57;;;;;;;21.77;66.64;99197.22;4932583;29;20060;-79
2021/08/08 06:00:38;;;;;;;6.97;5.28;;;;;;;21.86;66.71;99197.78;4931457;29;20119;-73
2021/08/08 06:03:11;;;;;;;7.75;4.78;;;;;;;22.00;66.37;99209.34;4926054;29;20052;-74
2021/08/08 06:05:39;;;;;;;7.30;5.30;;;;;;;22.01;66.16;99221.75;4931906;29;20032;-78
2021/08/08 06:08:07;;;;;;;7.28;5.60;;;;;;;22.14;66.14;99210.94;4936771;29;20068;-79
2021/08/08 06:10:34;;;;;;;8.70;5.18;;;;;;;22.23;65.90;99222.31;4931603;29;20543;-77
2021/08/08 06:13:01;;;;;;;7.90;5.80;;;;;;;22.30;65.65;99221.25;4927211;29;20052;-72
2021/08/08 06:15:31;;;;;;;6.05;5.10;;;;;;;22.32;65.41;99219.19;4928453;29;20054;-74
2021/08/08 06:17:58;;;;;;;9.82;5.43;;;;;;;22.34;65.43;99221.66;4928216;29;20479;-73
2021/08/08 06:20:26;;;;;;;6.22;5.25;;;;;;;22.30;65.57;99220.44;4925897;29;20055;-75
2021/08/08 06:22:53;;;;;;;11.02;6.07;;;;;;;22.31;65.54;99222.94;4928269;29;20421;-79
2021/08/08 06:25:20;;;;;;;6.50;5.18;;;;;;;22.33;65.26;99228.91;4933227;29;20042;-79
2021/08/08 06:27:49;;;;;;;6.88;5.68;;;;;;;22.42;64.99;99240.25;4929883;29;20063;-80
2021/08/08 06:30:15;;;;;;;9.38;6.40;;;;;;;22.36;65.33;99251.88;4931744;29;20060;-80
2021/08/08 06:32:45;;;;;;;8.82;7.20;;;;;;;22.29;65.04;99273.44;4931518;29;20044;-79
2021/08/08 06:35:13;;;;;;;8.57;7.68;;;;;;;22.09;65.61;99267.22;4927466;29;20048;-79
2021/08/08 06:37:44;;;;;;;8.32;6.60;;;;;;;22.05;65.71;99274.06;4927315;29;20048;-81
2021/08/08 06:40:12;;;;;;;11.43;8.80;;;;;;;22.00;65.59;99281.94;4924370;29;20056;-81
2021/08/08 06:42:39;;;;;;;8.80;7.90;;;;;;;21.88;65.64;99287.94;4924192;29;20508;-80
2021/08/08 06:45:08;;;;;;;9.68;8.65;;;;;;;21.78;66.15;99290.22;4925275;29;20047;-80
2021/08/08 06:47:35;;;;;;;10.60;8.50;;;;;;;21.68;66.43;99303.25;4944349;28;20058;-79
2021/08/08 06:50:04;;;;;;;12.23;9.85;;;;;;;21.58;66.59;99312.56;4947294;28;20059;-81
2021/08/08 06:52:31;;;;;;;12.35;10.10;;;;;;;21.52;66.49;99331.38;4946180;28;20036;-79
2021/08/08 06:55:00;;;;;;;13.45;11.85;;;;;;;21.47;66.55;99325.78;4947753;28;20335;-79
2021/08/08 06:57:28;;;;;;;14.98;12.20;;;;;;;21.51;65.85;99341.28;4944809;28;20043;-79
2021/08/08 06:59:58;;;;;;;15.75;12.48;;;;;;;21.47;65.93;99339.22;4950634;28;20488;-80
2021/08/08 07:02:26;;;;;;;12.43;11.23;;;;;;;21.50;65.19;99347.69;4942290;28;20115;-81
2021/08/08 07:04:54;;;;;;;14.73;12.27;;;;;;;21.39;65.22;99359.84;4880956;29;20048;-78
2021/08/08 07:07:24;;;;;;;13.02;10.73;;;;;;;21.32;65.38;99360.84;4948795;29;20050;-78
2021/08/08 07:09:51;;;;;;;15.52;12.77;;;;;;;21.22;65.59;99381.91;4946562;28;20036;-79
2021/08/08 07:12:19;;;;;;;17.20;11.95;;;;;;;21.07;65.75;99385.56;4945195;28;20053;-78
2021/08/08 07:14:46;;;;;;;12.70;11.40;;;;;;;21.04;66.01;99396.69;4942520;29;20613;-79
2021/08/08 07:17:12;;;;;;;11.15;10.02;;;;;;;20.97;65.45;99401.22;4915288;29;20086;-78
2021/08/08 07:19:39;;;;;;;9.15;7.97;;;;;;;20.91;65.49;99402.03;4944759;28;20040;-78
2021/08/08 07:22:07;;;;;;;10.82;7.75;;;;;;;20.87;65.66;99403.41;4937453;28;20047;-79
2021/08/08 07:24:35;;;;;;;10.23;9.23;;;;;;;20.84;65.50;99396.63;4929110;29;20062;-78
2021/08/08 07:27:03;;;;;;;8.68;6.97;;;;;;;20.71;66.00;99404.59;4936938;28;20249;-79
2021/08/08 07:29:30;;;;;;;8.07;5.97;;;;;;;20.75;65.72;99403.19;4932473;29;20046;-79
2021/08/08 07:31:58;;;;;;;8.50;6.30;;;;;;;20.76;65.78;99412.88;4930738;29;20052;-81
2021/08/08 07:34:25;;;;;;;8.82;6.90;;;;;;;20.85;65.81;99427.81;4931418;28;20047;-78
2021/08/08 07:36:52;;;;;;;6.38;5.32;;;;;;;20.91;65.01;99421.63;4938871;29;20189;-79
2021/08/08 07:39:19;;;;;;;7.45;5.95;;;;;;;21.26;64.15;99418.88;4935930;29;20027;-76
2021/08/08 07:41:48;;;;;;;6.28;4.05;;;;;;;21.36;63.45;99431.94;4934213;28;20055;-79
2021/08/08 07:44:15;;;;;;;5.10;4.60;;;;;;;21.60;63.30;99432.44;4929558;28;20122;-79
2021/08/08 07:46:42;;;;;;;7.60;4.50;;;;;;;21.58;62.29;99448.78;4937915;28;20038;-81
2021/08/08 07:49:10;;;;;;;5.70;4.38;;;;;;;21.60;62.63;99457.44;4938144;28;20043;-78
2021/08/08 07:51:37;;;;;;;4.97;4.25;;;;;;;21.55;61.92;99468.81;4910392;29;20060;-78
2021/08/08 07:54:04;;;;;;;5.10;4.13;;;;;;;21.27;63.08;99474.25;4932438;28;20108;-75
2021/08/08 07:56:31;;;;;;;5.10;3.38;;;;;;;21.33;63.22;99478.81;4930027;29;20044;-74
2021/08/08 07:59:01;;;;;;;4.78;3.92;;;;;;;21.23;63.35;99472.16;4934163;28;20067;-78
2021/08/08 08:01:28;;;;;;;5.70;4.00;;;;;;;21.34;63.15;99487.72;4932860;29;20681;-77
2021/08/08 08:03:55;;;;;;;4.07;3.20;;;;;;;21.41;62.36;99488.56;4929104;29;20035;-78
2021/08/08 08:06:22;;;;;;;5.78;3.10;;;;;;;21.45;62.39;99489.00;4932334;29;20447;-76
2021/08/08 08:08:48;;;;;;;4.28;3.33;;;;;;;21.43;62.28;99486.50;4936231;28;20118;-76
2021/08/08 08:11:17;;;;;;;4.03;3.13;;;;;;;21.54;61.99;99493.19;4934263;28;20047;-78
2021/08/08 08:13:44;;;;;;;4.40;2.67;;;;;;;21.83;61.78;99497.41;4941930;28;20281;-75
2021/08/08 08:16:12;;;;;;;4.88;2.40;;;;;;;22.18;60.78;99499.94;4935377;29;20036;-72
2021/08/08 08:18:39;;;;;;;3.70;3.20;;;;;;;22.32;60.19;99500.81;4928604;29;20040;-77
2021/08/08 08:21:06;;;;;;;5.43;3.20;;;;;;;22.23;59.71;99507.41;4931069;29;20075;-76
2021/08/08 08:23:34;;;;;;;4.80;2.95;;;;;;;22.37;59.91;99497.53;4933396;29;20107;-73
2021/08/08 08:26:01;;;;;;;4.07;2.83;;;;;;;22.17;59.75;99505.56;4933644;29;20027;-72
2021/08/08 08:28:29;;;;;;;3.58;2.50;;;;;;;22.21;59.81;99502.22;4936045;28;20123;-71
2021/08/08 08:30:57;;;;;;;2.95;2.65;;;;;;;22.02;60.52;99513.78;4941458;29;20490;-73
2021/08/08 08:33:26;;;;;;;4.63;3.20;;;;;;;22.05;59.89;99529.53;4930989;28;20103;-74
2021/08/08 08:35:53;;;;;;;6.03;3.05;;;;;;;21.84;60.46;99538.56;4932126;28;20063;-76
2021/08/08 08:38:20;;;;;;;3.20;2.90;;;;;;;21.95;60.32;99541.50;4932655;29;20062;-77
2021/08/08 08:40:48;;;;;;;3.63;2.70;;;;;;;21.93;60.56;99554.31;4931825;29;20051;-78
2021/08/08 08:43:15;;;;;;;3.65;2.50;;;;;;;21.91;60.59;99548.31;4930533;29;20702;-73
2021/08/08 08:45:45;;;;;;;2.22;1.80;;;;;;;21.75;60.57;99549.50;4931750;28;20051;-72
2021/08/08 08:48:17;;;;;;;4.30;2.60;;;;;;;21.83;61.20;99553.88;4924634;29;20275;-72
2021/08/08 08:50:49;;;;;;;2.83;2.30;;;;;;;21.95;60.24;99557.63;4924955;29;20043;-74
2021/08/08 08:53:17;;;;;;;2.92;2.20;;;;;;;22.26;59.71;99550.91;4928790;29;20056;-73
2021/08/08 08:55:47;;;;;;;5.20;2.60;;;;;;;22.33;59.19;99546.34;4928183;29;20032;-74
2021/08/08 08:58:16;;;;;;;3.55;2.17;;;;;;;22.42;59.13;99546.13;4934626;29;20044;-73
2021/08/08 09:00:43;;;;;;;3.75;2.47;;;;;;;22.70;58.44;99549.47;4913061;29;20036;-73
2021/08/08 09:03:11;;;;;;;4.72;2.50;;;;;;;23.24;57.29;99542.16;4936367;29;20083;-72
2021/08/08 09:05:37;;;;;;;4.32;2.45;;;;;;;23.80;56.21;99551.50;4927845;29;20082;-74
2021/08/08 09:08:07;;;;;;;3.67;2.40;;;;;;;23.94;55.18;99560.38;4929633;29;20055;-73
2021/08/08 09:10:34;;;;;;;4.45;2.30;;;;;;;24.13;55.09;99572.09;4928736;29;20099;-74
2021/08/08 09:13:03;;;;;;;2.55;2.10;;;;;;;24.30;54.56;99585.91;4931036;29;20053;-72
2021/08/08 09:15:53;;;;;;;3.35;2.42;;;;;;;24.43;54.31;99596.63;4930704;29;20036;-73
2021/08/08 09:18:22;;;;;;;2.40;2.05;;;;;;;24.42;53.78;99608.44;4888679;29;20048;-72
2021/08/08 09:20:50;;;;;;;3.33;2.25;;;;;;;24.65;53.27;99608.94;4890044;29;20057;-72
2021/08/08 09:23:19;;;;;;;3.63;2.30;;;;;;;24.30;52.97;99612.06;4886124;29;20056;-73
2021/08/08 09:25:51;;;;;;;4.03;2.67;;;;;;;24.53;52.98;99604.25;4885249;29;20120;-73
2021/08/08 09:28:18;;;;;;;4.13;2.38;;;;;;;24.67;52.71;99607.69;4889517;29;20184;-78
2021/08/08 09:30:45;;;;;;;3.92;2.33;;;;;;;24.55;52.14;99604.88;4889582;29;20056;-74
2021/08/08 09:33:13;;;;;;;4.70;2.38;;;;;;;24.57;52.77;99599.25;4888049;29;20051;-74
2021/08/08 09:35:42;;;;;;;3.03;2.30;;;;;;;24.58;52.62;99593.63;4901110;29;20096;-71
2021/08/08 09:38:10;;;;;;;3.13;2.22;;;;;;;24.80;52.40;99587.84;4926724;29;20067;-74
2021/08/08 09:40:41;;;;;;;4.30;2.45;;;;;;;24.96;51.78;99590.00;4926618;29;20054;-75
2021/08/08 09:43:10;;;;;;;2.78;2.08;;;;;;;25.27;50.78;99601.78;4923288;29;20131;-75
2021/08/08 09:45:40;;;;;;;6.15;2.30;;;;;;;25.24;50.33;99599.53;4928240;29;20073;-77
2021/08/08 09:48:09;;;;;;;2.22;2.03;;;;;;;25.35;50.34;99598.81;4917254;29;20253;-75
2021/08/08 09:50:37;;;;;;;3.17;2.22;;;;;;;25.63;50.15;99605.56;4930832;29;20056;-74
2021/08/08 09:53:06;;;;;;;3.95;2.30;;;;;;;25.67;50.15;99617.56;4923931;29;20633;-74
2021/08/08 09:55:35;;;;;;;2.88;2.17;;;;;;;25.48;50.75;99615.91;4929092;29;20056;-73
2021/08/08 09:58:06;;;;;;;4.07;2.03;;;;;;;25.27;51.44;99630.69;4927697;29;20078;-72
2021/08/08 10:00:35;;;;;;;3.28;1.73;;;;;;;25.43;50.93;99623.88;4922000;29;20043;-74
2021/08/08 10:03:03;;;;;;;3.70;2.30;;;;;;;25.66;50.13;99626.75;4930985;29;20115;-75
2021/08/08 10:05:30;;;;;;;3.58;2.15;;;;;;;25.96;49.82;99630.59;4931674;29;20048;-73
2021/08/08 10:07:59;;;;;;;2.72;2.10;;;;;;;26.33;48.86;99639.47;4916547;29;20128;-73
2021/08/08 10:10:26;;;;;;;3.42;1.98;;;;;;;26.69;47.99;99633.13;4926991;29;20067;-75
2021/08/08 10:13:12;;;;;;;12.23;3.33;;;;;;;27.02;47.36;99644.47;4944284;29;20055;-75
2021/08/08 10:15:42;;;;;;;3.80;1.80;;;;;;;27.08;46.49;99654.38;4940625;29;20130;-75
2021/08/08 10:18:11;;;;;;;2.90;2.05;;;;;;;26.67;46.73;99658.81;4932421;29;20104;-73
2021/08/08 10:20:39;;;;;;;3.03;2.08;;;;;;;26.56;47.27;99664.94;4932044;29;20055;-73
2021/08/08 10:23:07;;;;;;;4.35;2.65;;;;;;;26.49;47.61;99665.88;4924997;29;20511;-72
2021/08/08 10:25:35;;;;;;;3.38;2.83;;;;;;;26.44;47.58;99668.47;4928663;29;20044;-74
2021/08/08 10:28:02;;;;;;;2.55;1.83;;;;;;;26.27;47.51;99675.56;4935018;29;20078;-75
2021/08/08 10:30:34;;;;;;;3.35;2.30;;;;;;;25.93;47.86;99680.56;4924891;29;20079;-73
2021/08/08 10:33:02;;;;;;;4.70;2.35;;;;;;;25.66;47.83;99677.28;4924638;29;20206;-74
2021/08/08 10:35:36;;;;;;;2.95;2.38;;;;;;;25.49;47.94;99680.56;4927038;29;20428;-73
2021/08/08 10:38:04;;;;;;;3.70;2.35;;;;;;;25.30;48.65;99690.53;4930044;29;20091;-74
2021/08/08 10:40:33;;;;;;;3.35;2.50;;;;;;;25.31;48.67;99677.84;4933763;29;20056;-75
2021/08/08 10:43:01;;;;;;;8.52;3.05;;;;;;;25.59;47.97;99680.06;4932000;29;20381;-76
2021/08/08 10:45:32;;;;;;;3.33;2.83;;;;;;;25.62;48.39;99689.59;4943124;29;20262;-76
2021/08/08 10:48:01;;;;;;;4.65;2.80;;;;;;;25.53;48.43;99698.03;4938749;29;20056;-74
2021/08/08 10:50:40;;;;;;;4.45;1.80;;;;;;;25.62;48.21;99693.13;4939451;29;20116;-74
2021/08/08 10:53:19;;;;;;;4.13;3.03;;;;;;;25.89;47.58;99691.00;4929248;29;20102;-74
2021/08/08 10:55:47;;;;;;;3.95;2.40;;;;;;;26.03;47.43;99686.25;4941029;29;20055;-74
2021/08/08 10:58:15;;;;;;;4.18;2.25;;;;;;;26.08;47.33;99678.28;4930695;29;20099;-75
2021/08/08 11:00:45;;;;;;;5.03;2.47;;;;;;;26.06;47.61;99685.81;4939609;29;20063;-75
2021/08/08 11:03:13;;;;;;;3.75;1.83;;;;;;;26.12;47.60;99695.72;4941121;29;20044;-75
2021/08/08 11:05:40;;;;;;;2.67;2.17;;;;;;;26.55;47.08;99696.63;4931793;29;20143;-76
2021/08/08 11:08:08;;;;;;;3.17;2.00;;;;;;;26.84;46.61;99699.59;4945416;29;20059;-76
2021/08/08 11:10:41;;;;;;;4.22;2.50;;;;;;;27.01;46.28;99684.31;4935512;29;20068;-78
2021/08/08 11:13:22;;;;;;;3.50;2.25;;;;;;;27.17;45.88;99690.94;4936612;29;20063;-76
2021/08/08 11:15:54;;;;;;;3.72;1.92;;;;;;;27.46;45.44;99707.38;4942578;29;20044;-75
2021/08/08 11:18:30;;;;;;;3.35;2.30;;;;;;;27.36;45.23;99715.25;4917619;29;20193;-77
2021/08/08 11:20:58;;;;;;;2.75;2.08;;;;;;;27.11;45.71;99720.84;4922926;29;20079;-75
2021/08/08 11:23:30;;;;;;;3.65;2.20;;;;;;;26.89;45.90;99716.78;4930215;29;20231;-75
2021/08/08 11:25:57;;;;;;;2.80;1.92;;;;;;;26.80;45.69;99720.91;4923836;29;20055;-75
2021/08/08 11:28:25;;;;;;;3.92;2.97;;;;;;;27.11;44.94;99727.09;4931271;29;20066;-75
2021/08/08 11:30:53;;;;;;;4.00;2.45;;;;;;;27.11;45.05;99721.66;4918763;29;20048;-76
2021/08/08 11:33:25;;;;;;;3.45;1.92;;;;;;;27.10;44.95;99720.03;4923472;29;20055;-74
2021/08/08 11:36:00;;;;;;;4.70;2.22;;;;;;;27.22;44.82;99714.63;4926717;29;20047;-72